Time;durP1;ratioP1;P1;durP2;ratioP2;P2;SDS_P1;SDS_P2;PMS_P1;PMS_P2;Temp;Humidity;BMP_temperature;BMP_pressure;BME280_temperature;BME280_humidity;BME280_pressure;Samples;Min_cycle;Max_cycle;Signal;HPM_P1;HPM_P2
2021/08/12 00:02:25;;;;;;;3.20;2.97;;;23.00;99.90;;;;;;5039516;28;20222;-72
2021/08/12 00:04:52;;;;;;;3.28;3.05;;;22.90;99.90;;;;;;5047794;28;20222;-73
2021/08/12 00:07:20;;;;;;;3.30;3.00;;;22.90;99.90;;;;;;5043564;28;20226;-72
2021/08/12 00:09:47;;;;;;;3.00;2.80;;;22.80;99.90;;;;;;5040570;28;20221;-74
2021/08/12 00:12:16;;;;;;;3.30;3.00;;;22.80;99.90;;;;;;5042789;28;20226;-73
2021/08/12 00:14:43;;;;;;;4.15;3.05;;;22.70;99.90;;;;;;5044448;28;20230;-72
2021/08/12 00:17:10;;;;;;;3.47;3.17;;;22.70;99.90;;;;;;5043191;28;20235;-76
2021/08/12 00:19:37;;;;;;;3.70;3.40;;;22.70;99.90;;;;;;5045418;28;20230;-73
2021/08/12 00:22:05;;;;;;;3.35;3.15;;;22.60;99.90;;;;;;5047798;28;20268;-74
2021/08/12 00:24:32;;;;;;;4.03;3.63;;;22.50;99.90;;;;;;5042200;28;20698;-73
2021/08/12 00:27:02;;;;;;;3.50;3.20;;;22.50;99.90;;;;;;5045131;28;20248;-74
2021/08/12 00:29:30;;;;;;;3.13;2.90;;;22.50;99.90;;;;;;5039380;28;20298;-72
2021/08/12 00:31:57;;;;;;;3.33;3.03;;;22.50;99.90;;;;;;5044801;28;20948;-73
2021/08/12 00:34:24;;;;;;;3.50;3.20;;;22.50;99.90;;;;;;5042530;28;20272;-72
2021/08/12 00:36:52;;;;;;;3.10;2.90;;;22.40;99.90;;;;;;5041258;28;20316;-76
2021/08/12 00:39:19;;;;;;;3.15;2.95;;;22.50;99.90;;;;;;5046316;28;20282;-73
2021/08/12 00:41:46;;;;;;;2.95;2.75;;;22.50;99.90;;;;;;5040746;28;20651;-71
2021/08/12 00:44:13;;;;;;;2.92;2.60;;;22.50;99.90;;;;;;5044350;28;20713;-73
2021/08/12 00:46:41;;;;;;;3.83;3.10;;;22.50;99.90;;;;;;5043683;28;20235;-74
2021/08/12 00:49:08;;;;;;;3.20;3.00;;;22.50;99.90;;;;;;5042035;28;20268;-72
2021/08/12 00:51:39;;;;;;;3.25;2.95;;;22.40;99.90;;;;;;5046428;28;20276;-73
2021/08/12 00:54:06;;;;;;;3.35;3.05;;;22.50;99.90;;;;;;5043474;28;20218;-73
2021/08/12 00:56:33;;;;;;;3.60;3.30;;;22.40;99.90;;;;;;5042294;28;20227;-73
2021/08/12 00:59:00;;;;;;;3.42;3.13;;;22.40;99.90;;;;;;5041171;28;21040;-73
2021/08/12 01:01:28;;;;;;;3.13;2.92;;;22.40;99.90;;;;;;5038899;28;20222;-74
2021/08/12 01:03:58;;;;;;;3.40;3.10;;;22.40;99.90;;;;;;5042005;28;20227;-73
2021/08/12 01:06:29;;;;;;;3.67;2.90;;;22.40;99.90;;;;;;5042466;28;20230;-72
2021/08/12 01:09:04;;;;;;;3.38;3.15;;;22.40;99.90;;;;;;5045043;28;20238;-70
2021/08/12 01:11:38;;;;;;;3.72;3.00;;;22.30;99.90;;;;;;5043196;28;20267;-72
2021/08/12 01:14:18;;;;;;;3.20;3.00;;;22.30;99.90;;;;;;5049000;28;20217;-73
2021/08/12 01:16:47;;;;;;;3.75;3.13;;;22.30;99.90;;;;;;5042074;28;20751;-73
2021/08/12 01:19:34;;;;;;;3.00;2.80;;;22.20;99.90;;;;;;5044472;28;20223;-74
2021/08/12 01:22:05;;;;;;;3.20;2.90;;;22.30;99.90;;;;;;5042930;28;20227;-72
2021/08/12 01:24:35;;;;;;;3.03;2.83;;;22.30;99.90;;;;;;5041503;28;20225;-73
2021/08/12 01:27:07;;;;;;;3.08;2.88;;;22.30;99.90;;;;;;5045527;28;20292;-72
2021/08/12 01:29:43;;;;;;;3.65;3.35;;;22.30;99.90;;;;;;5044532;28;20222;-73
2021/08/12 01:32:14;;;;;;;3.42;3.13;;;22.20;99.90;;;;;;5040997;28;20280;-71
2021/08/12 01:34:55;;;;;;;3.15;2.85;;;22.20;99.90;;;;;;5045971;28;20600;-73
2021/08/12 01:37:25;;;;;;;3.28;3.05;;;22.10;99.90;;;;;;5039820;28;21865;-75
2021/08/12 01:39:53;;;;;;;3.80;3.50;;;22.10;99.90;;;;;;5044467;28;20223;-72
2021/08/12 01:42:22;;;;;;;3.72;3.42;;;22.20;99.90;;;;;;5042233;28;20223;-72
2021/08/12 01:44:51;;;;;;;3.83;3.47;;;22.10;99.90;;;;;;5040878;28;20222;-73
2021/08/12 01:47:18;;;;;;;3.63;3.33;;;22.10;99.90;;;;;;5039590;28;20729;-75
2021/08/12 01:49:46;;;;;;;3.50;3.20;;;22.10;99.90;;;;;;5040904;28;20218;-75
2021/08/12 01:52:17;;;;;;;3.80;3.50;;;22.10;99.90;;;;;;5039466;28;20268;-75
2021/08/12 01:54:46;;;;;;;3.15;2.88;;;22.10;99.90;;;;;;5040354;28;22015;-74
2021/08/12 01:57:13;;;;;;;3.50;3.20;;;22.00;99.90;;;;;;5042825;28;20222;-74
2021/08/12 01:59:41;;;;;;;3.22;2.92;;;22.00;99.90;;;;;;5043526;28;20234;-75
2021/08/12 02:02:10;;;;;;;3.20;2.90;;;22.00;99.90;;;;;;5040755;28;20222;-75
2021/08/12 02:04:39;;;;;;;3.30;3.00;;;22.00;99.90;;;;;;5043631;28;20214;-75
2021/08/12 02:07:07;;;;;;;3.05;2.83;;;21.90;99.90;;;;;;5036394;28;20223;-75
2021/08/12 02:09:36;;;;;;;3.65;3.35;;;21.90;99.90;;;;;;5047221;28;20218;-76
2021/08/12 02:12:04;;;;;;;3.05;2.85;;;21.80;99.90;;;;;;5042179;28;20918;-74
2021/08/12 02:14:32;;;;;;;3.40;3.10;;;21.80;99.90;;;;;;5044231;28;20226;-74
2021/08/12 02:16:59;;;;;;;3.50;3.20;;;21.80;99.90;;;;;;5042281;28;20219;-74
2021/08/12 02:19:27;;;;;;;3.78;3.47;;;21.70;99.90;;;;;;5040553;28;20893;-75
2021/08/12 02:22:01;;;;;;;3.53;3.22;;;21.70;99.90;;;;;;5034908;28;20226;-75
2021/08/12 02:24:34;;;;;;;4.10;3.72;;;21.70;99.90;;;;;;5036757;28;20301;-74
2021/08/12 02:27:05;;;;;;;3.13;2.92;;;21.70;99.90;;;;;;5040477;28;20219;-75
2021/08/12 02:29:34;;;;;;;4.53;3.67;;;21.70;99.90;;;;;;5042991;28;20218;-75
2021/08/12 02:32:05;;;;;;;3.72;3.42;;;21.70;99.90;;;;;;5041207;28;20305;-75
2021/08/12 02:34:32;;;;;;;3.28;3.03;;;21.60;99.90;;;;;;5040139;28;20522;-76
2021/08/12 02:37:02;;;;;;;3.53;3.22;;;21.60;99.90;;;;;;5041948;28;20232;-76
2021/08/12 02:39:30;;;;;;;3.30;3.10;;;21.60;99.90;;;;;;5040034;28;20675;-75
2021/08/12 02:41:59;;;;;;;3.60;3.30;;;21.50;99.90;;;;;;5046338;28;20226;-73
2021/08/12 02:44:28;;;;;;;3.70;3.40;;;21.50;99.90;;;;;;5044878;28;20223;-76
2021/08/12 02:46:57;;;;;;;3.75;3.45;;;21.50;99.90;;;;;;5039729;28;20280;-74
2021/08/12 02:49:25;;;;;;;3.65;3.35;;;21.40;99.90;;;;;;5044465;28;20268;-74
2021/08/12 02:51:53;;;;;;;3.83;3.50;;;21.40;99.90;;;;;;5046416;28;20717;-74
2021/08/12 02:54:20;;;;;;;3.90;3.60;;;21.40;99.90;;;;;;5047383;28;20234;-73
2021/08/12 02:56:49;;;;;;;4.10;3.80;;;21.40;99.90;;;;;;5042910;28;20271;-73
2021/08/12 02:59:17;;;;;;;3.65;3.35;;;21.30;99.90;;;;;;5043430;28;20224;-74
2021/08/12 03:01:47;;;;;;;3.85;3.55;;;21.30;99.90;;;;;;5041367;28;20271;-73
2021/08/12 03:04:14;;;;;;;5.43;3.92;;;21.30;99.90;;;;;;5042759;28;20226;-75
2021/08/12 03:06:42;;;;;;;4.05;3.72;;;21.30;99.90;;;;;;5043279;28;20646;-76
2021/08/12 03:09:10;;;;;;;3.72;3.33;;;21.40;99.90;;;;;;5042702;28;20604;-74
2021/08/12 03:11:39;;;;;;;3.65;3.35;;;21.30;99.90;;;;;;5039773;28;20276;-74
2021/08/12 03:14:07;;;;;;;4.20;3.80;;;21.30;99.90;;;;;;5038971;28;20227;-76
2021/08/12 03:16:34;;;;;;;3.58;3.22;;;21.30;99.90;;;;;;5041294;28;20732;-74
2021/08/12 03:19:03;;;;;;;3.80;3.38;;;21.30;99.90;;;;;;5044717;28;20284;-75
2021/08/12 03:21:30;;;;;;;3.67;2.92;;;21.30;99.90;;;;;;5041455;28;20218;-74
2021/08/12 03:24:01;;;;;;;4.05;3.25;;;21.20;99.90;;;;;;5038664;28;20702;-74
2021/08/12 03:26:28;;;;;;;3.72;3.42;;;21.30;99.90;;;;;;5045145;28;20225;-74
2021/08/12 03:28:55;;;;;;;3.67;3.38;;;21.20;99.90;;;;;;5041378;28;20235;-72
2021/08/12 03:31:22;;;;;;;3.70;3.40;;;21.10;99.90;;;;;;5037528;28;20234;-74
2021/08/12 03:33:49;;;;;;;3.60;3.30;;;21.10;99.90;;;;;;5043468;28;20230;-76
2021/08/12 03:36:18;;;;;;;3.63;3.33;;;21.10;99.90;;;;;;5042899;28;20703;-74
2021/08/12 03:38:45;;;;;;;3.90;3.42;;;21.10;99.90;;;;;;5043702;28;20229;-74
2021/08/12 03:41:12;;;;;;;3.90;3.60;;;21.10;99.90;;;;;;5044904;28;20295;-76
2021/08/12 03:43:39;;;;;;;3.83;3.53;;;21.10;99.90;;;;;;5045915;28;20356;-74
2021/08/12 03:46:06;;;;;;;3.08;2.88;;;21.10;99.90;;;;;;5041409;28;20227;-74
2021/08/12 03:48:33;;;;;;;3.63;3.33;;;21.10;99.90;;;;;;5043766;28;20230;-74
2021/08/12 03:51:00;;;;;;;3.72;3.42;;;21.00;99.90;;;;;;5042063;28;20644;-75
2021/08/12 03:53:29;;;;;;;3.65;3.35;;;20.90;99.90;;;;;;5043413;28;20223;-76
2021/08/12 03:56:00;;;;;;;3.92;3.63;;;20.90;99.90;;;;;;5041149;28;20234;-74
2021/08/12 03:58:27;;;;;;;3.78;3.47;;;20.90;99.90;;;;;;5046726;28;20235;-74
2021/08/12 04:00:56;;;;;;;3.67;3.38;;;20.80;99.90;;;;;;5039464;28;20230;-75
2021/08/12 04:03:23;;;;;;;4.22;3.83;;;20.80;99.90;;;;;;5044702;28;20317;-74
2021/08/12 04:05:50;;;;;;;3.70;3.40;;;20.80;99.90;;;;;;5041268;28;20273;-74
2021/08/12 04:08:17;;;;;;;5.00;3.88;;;20.70;99.90;;;;;;5046109;28;20238;-74
2021/08/12 04:10:45;;;;;;;3.85;3.45;;;20.70;99.90;;;;;;5046866;28;20285;-73
2021/08/12 04:13:12;;;;;;;4.10;3.70;;;20.60;99.90;;;;;;5042150;28;20234;-74
2021/08/12 04:15:39;;;;;;;4.10;3.80;;;20.70;99.90;;;;;;5043575;28;20705;-74
2021/08/12 04:18:06;;;;;;;3.67;3.25;;;20.60;99.90;;;;;;5042253;28;20234;-73
2021/08/12 04:20:33;;;;;;;4.05;3.75;;;20.60;99.90;;;;;;5045997;28;20231;-75
2021/08/12 04:23:00;;;;;;;3.75;3.45;;;20.60;99.90;;;;;;5044628;28;20277;-75
2021/08/12 04:25:27;;;;;;;4.53;4.13;;;20.60;99.90;;;;;;5046170;28;20227;-75
2021/08/12 04:27:56;;;;;;;4.18;3.70;;;20.60;99.90;;;;;;5042207;28;20759;-74
2021/08/12 04:30:23;;;;;;;3.65;3.35;;;20.70;99.90;;;;;;5048506;28;21262;-74
2021/08/12 04:32:50;;;;;;;3.95;3.65;;;20.70;99.90;;;;;;5045584;28;20214;-75
2021/08/12 04:35:17;;;;;;;3.95;3.65;;;20.70;99.90;;;;;;5046459;28;20286;-74
2021/08/12 04:37:45;;;;;;;3.30;3.10;;;20.70;99.90;;;;;;5043746;28;20582;-73
2021/08/12 04:40:14;;;;;;;4.03;3.67;;;20.70;99.90;;;;;;5041235;28;20231;-74
2021/08/12 04:42:42;;;;;;;3.50;3.20;;;20.70;99.90;;;;;;5043428;28;20233;-72
2021/08/12 04:45:12;;;;;;;3.40;3.20;;;20.80;99.90;;;;;;5043833;28;20758;-74
2021/08/12 04:47:39;;;;;;;3.47;3.20;;;20.70;99.90;;;;;;5041016;28;20545;-74
2021/08/12 04:50:07;;;;;;;4.07;3.70;;;20.80;99.90;;;;;;5045125;28;20230;-74
2021/08/12 04:52:34;;;;;;;3.92;3.63;;;20.90;99.90;;;;;;5043248;28;20223;-74
2021/08/12 04:55:01;;;;;;;3.92;3.63;;;20.90;99.90;;;;;;5044079;28;20634;-74
2021/08/12 04:57:28;;;;;;;3.95;3.65;;;20.90;99.90;;;;;;5044564;28;20227;-74
2021/08/12 04:59:55;;;;;;;4.50;3.75;;;21.10;99.90;;;;;;5041381;28;20233;-74
2021/08/12 05:02:31;;;;;;;3.28;3.00;;;21.20;99.90;;;;;;5038872;28;20245;-75
2021/08/12 05:04:58;;;;;;;3.70;3.40;;;21.40;99.90;;;;;;5042939;28;20218;-74
2021/08/12 05:07:25;;;;;;;3.80;3.50;;;21.50;99.90;;;;;;5044469;28;20226;-74
2021/08/12 05:09:52;;;;;;;3.92;3.63;;;21.60;99.90;;;;;;5045260;28;20224;-74
2021/08/12 05:12:20;;;;;;;4.00;3.60;;;21.70;99.90;;;;;;5048587;28;20231;-74
2021/08/12 05:14:47;;;;;;;5.00;3.70;;;21.90;99.90;;;;;;5042487;28;20301;-74
2021/08/12 05:17:14;;;;;;;3.60;3.30;;;22.00;99.90;;;;;;5043162;28;20230;-74
2021/08/12 05:22:21;;;;;;;4.55;4.15;;;22.30;99.90;;;;;;5029517;28;20234;-70
2021/08/12 05:24:48;;;;;;;4.43;4.00;;;22.30;99.90;;;;;;5041149;28;20227;-69
2021/08/12 05:27:15;;;;;;;4.65;3.88;;;22.50;99.90;;;;;;5049936;28;20662;-69
2021/08/12 05:29:42;;;;;;;4.15;3.75;;;22.70;99.90;;;;;;5057289;28;20230;-69
2021/08/12 05:32:10;;;;;;;4.32;3.72;;;22.80;99.90;;;;;;5029217;28;20235;-69
2021/08/12 05:34:37;;;;;;;4.28;3.90;;;23.00;99.90;;;;;;5023402;28;20269;-69
2021/08/12 05:37:04;;;;;;;4.75;4.38;;;23.20;99.90;;;;;;5024075;28;20235;-69
2021/08/12 05:39:33;;;;;;;4.68;4.28;;;23.20;99.90;;;;;;5020876;28;20224;-69
2021/08/12 05:42:00;;;;;;;5.13;4.68;;;23.20;99.90;;;;;;5025442;28;20276;-70
2021/08/12 05:44:27;;;;;;;5.15;4.65;;;23.30;99.90;;;;;;5023293;28;20709;-70
2021/08/12 05:46:54;;;;;;;4.68;4.10;;;23.40;99.90;;;;;;5023608;28;20281;-69
2021/08/12 05:49:23;;;;;;;5.05;4.65;;;23.50;99.90;;;;;;5023253;28;20847;-69
2021/08/12 05:51:50;;;;;;;4.97;4.15;;;23.60;99.90;;;;;;5023203;28;20227;-69
2021/08/12 05:54:18;;;;;;;5.90;4.55;;;23.70;99.90;;;;;;5024301;28;20238;-71
2021/08/12 05:56:46;;;;;;;4.97;4.32;;;23.80;99.90;;;;;;5022492;28;20310;-71
2021/08/12 05:59:13;;;;;;;4.70;4.28;;;23.80;99.90;;;;;;5024307;28;20306;-71
2021/08/12 06:01:40;;;;;;;5.63;4.55;;;23.70;99.90;;;;;;5023647;28;20751;-71
2021/08/12 06:04:07;;;;;;;4.63;4.22;;;23.70;99.90;;;;;;5020811;28;20227;-68
2021/08/12 06:06:37;;;;;;;4.90;4.50;;;23.80;99.90;;;;;;5022705;28;20212;-68
2021/08/12 06:09:04;;;;;;;5.07;4.68;;;23.90;99.90;;;;;;5024949;28;20319;-69
2021/08/12 06:11:31;;;;;;;4.82;4.45;;;24.00;99.90;;;;;;5023253;28;20231;-69
2021/08/12 06:14:00;;;;;;;5.05;4.45;;;24.10;99.90;;;;;;5020397;28;20277;-69
2021/08/12 06:16:27;;;;;;;5.00;4.60;;;24.10;99.90;;;;;;5024559;28;20285;-68
2021/08/12 06:18:54;;;;;;;5.03;4.53;;;24.10;99.90;;;;;;5014499;28;20228;-69
2021/08/12 06:21:23;;;;;;;4.70;4.30;;;24.20;99.90;;;;;;5006512;28;20227;-69
2021/08/12 06:23:50;;;;;;;5.32;4.82;;;24.30;99.90;;;;;;5014211;28;20230;-69
2021/08/12 06:26:17;;;;;;;4.97;4.47;;;24.40;99.90;;;;;;5019478;28;20235;-68
2021/08/12 06:28:46;;;;;;;5.65;5.15;;;24.40;99.90;;;;;;5022166;28;20238;-69
2021/08/12 06:31:14;;;;;;;5.13;4.63;;;24.40;99.90;;;;;;5022557;28;20236;-69
2021/08/12 06:33:41;;;;;;;5.70;5.18;;;24.50;99.90;;;;;;5022585;28;20235;-68
2021/08/12 06:36:08;;;;;;;5.40;4.90;;;24.40;99.90;;;;;;5018336;28;20599;-68
2021/08/12 06:38:35;;;;;;;5.10;4.70;;;24.50;99.90;;;;;;5006721;28;20235;-69
2021/08/12 06:41:03;;;;;;;5.07;4.68;;;24.50;99.90;;;;;;5021056;28;20234;-69
2021/08/12 06:43:30;;;;;;;5.97;5.38;;;24.60;99.90;;;;;;5016610;28;20230;-69
2021/08/12 06:45:57;;;;;;;7.00;4.65;;;24.70;99.90;;;;;;5012728;28;20223;-68
2021/08/12 06:48:25;;;;;;;4.97;4.47;;;24.80;99.90;;;;;;5019295;28;20289;-69
2021/08/12 06:50:52;;;;;;;5.47;4.90;;;24.70;99.90;;;;;;5020160;28;20282;-68
2021/08/12 06:53:19;;;;;;;5.20;4.70;;;24.60;99.90;;;;;;5022064;28;20231;-68
2021/08/12 06:55:46;;;;;;;5.35;4.57;;;24.60;99.90;;;;;;5020733;28;20758;-69
2021/08/12 06:58:13;;;;;;;5.50;5.00;;;24.50;99.90;;;;;;5011314;28;20622;-70
2021/08/12 07:00:40;;;;;;;5.20;4.47;;;24.50;99.90;;;;;;5016451;28;20975;-71
2021/08/12 07:03:07;;;;;;;5.22;4.82;;;24.50;99.90;;;;;;5021143;28;20219;-72
2021/08/12 07:05:36;;;;;;;5.85;5.30;;;24.70;99.90;;;;;;5020027;28;20231;-72
2021/08/12 07:08:05;;;;;;;5.45;4.80;;;24.60;99.90;;;;;;5017070;28;20296;-71
2021/08/12 07:10:32;;;;;;;5.10;4.70;;;24.70;99.90;;;;;;5017566;28;20366;-69
2021/08/12 07:12:59;;;;;;;5.45;4.95;;;24.70;99.90;;;;;;5018641;28;20218;-71
2021/08/12 07:15:26;;;;;;;5.95;5.20;;;24.90;99.90;;;;;;5016337;28;20787;-71
2021/08/12 07:17:54;;;;;;;5.30;4.90;;;25.00;99.90;;;;;;5013520;28;20296;-71
2021/08/12 07:20:21;;;;;;;5.63;5.13;;;25.20;99.90;;;;;;5018531;28;20227;-72
2021/08/12 07:22:49;;;;;;;5.15;4.65;;;25.30;99.90;;;;;;5018846;28;20231;-72
2021/08/12 07:25:16;;;;;;;5.20;4.70;;;25.40;99.90;;;;;;5014751;28;20227;-72
2021/08/12 07:27:48;;;;;;;5.90;4.75;;;25.40;99.90;;;;;;5014309;28;20273;-71
2021/08/12 07:30:16;;;;;;;5.82;5.32;;;25.40;99.90;;;;;;5012287;28;20248;-72
2021/08/12 07:32:43;;;;;;;6.05;5.45;;;25.50;99.90;;;;;;5016923;28;20223;-72
2021/08/12 07:35:10;;;;;;;5.45;4.97;;;25.50;99.90;;;;;;5019887;28;20245;-72
2021/08/12 07:37:37;;;;;;;6.22;5.63;;;25.50;99.90;;;;;;5015437;28;20235;-71
2021/08/12 07:40:07;;;;;;;7.15;4.63;;;25.40;99.90;;;;;;5018933;28;20284;-72
2021/08/12 07:42:34;;;;;;;6.25;5.72;;;25.50;99.90;;;;;;5016705;28;20231;-72
2021/08/12 07:45:02;;;;;;;6.15;5.32;;;25.50;99.90;;;;;;5016635;28;20227;-72
2021/08/12 07:47:30;;;;;;;6.22;5.50;;;25.50;99.90;;;;;;5019795;28;20570;-72
2021/08/12 07:49:57;;;;;;;5.65;5.05;;;25.70;99.90;;;;;;5016819;28;20266;-71
2021/08/12 07:52:24;;;;;;;5.90;5.40;;;25.90;99.90;;;;;;5017595;28;20303;-72
2021/08/12 07:54:51;;;;;;;5.25;4.85;;;26.00;99.90;;;;;;5020548;28;20282;-72
2021/08/12 07:57:20;;;;;;;6.15;5.55;;;26.00;99.90;;;;;;5018813;28;20239;-74
2021/08/12 07:59:47;;;;;;;5.68;5.18;;;26.00;99.90;;;;;;5022265;28;20227;-72
2021/08/12 08:02:15;;;;;;;6.10;5.50;;;26.00;99.90;;;;;;5014288;28;20227;-74
2021/08/12 08:04:43;;;;;;;5.88;5.25;;;26.10;99.90;;;;;;5020634;28;20284;-73
2021/08/12 08:07:10;;;;;;;5.70;5.20;;;26.00;99.90;;;;;;5018429;28;20235;-73
2021/08/12 08:09:37;;;;;;;5.80;5.30;;;26.10;99.90;;;;;;5018822;28;20309;-72
2021/08/12 08:12:05;;;;;;;5.85;5.10;;;26.20;99.90;;;;;;5017525;28;20239;-73
2021/08/12 08:14:34;;;;;;;5.88;5.20;;;26.50;99.90;;;;;;5016110;28;20227;-73
2021/08/12 08:17:01;;;;;;;6.13;5.63;;;26.70;99.90;;;;;;5020716;28;20227;-81
2021/08/12 08:19:29;;;;;;;6.55;5.15;;;26.70;99.90;;;;;;5012525;28;20223;-71
2021/08/12 08:21:56;;;;;;;5.68;5.28;;;26.80;99.90;;;;;;5013976;28;20245;-71
2021/08/12 08:24:23;;;;;;;7.10;5.95;;;27.00;99.90;;;;;;5013225;28;20271;-72
2021/08/12 08:26:50;;;;;;;6.75;6.10;;;27.10;99.90;;;;;;5015750;28;20223;-71
2021/08/12 08:29:17;;;;;;;7.55;5.72;;;26.90;99.90;;;;;;5013583;28;20491;-72
2021/08/12 08:31:46;;;;;;;7.90;5.90;;;26.70;99.90;;;;;;5014503;28;20276;-71
2021/08/12 08:34:13;;;;;;;6.90;6.30;;;26.70;99.90;;;;;;5019645;28;20519;-72
2021/08/12 08:36:40;;;;;;;6.82;6.05;;;26.70;99.90;;;;;;5019966;28;20285;-71
2021/08/12 08:39:08;;;;;;;6.13;5.63;;;26.70;99.90;;;;;;5011877;28;20305;-71
2021/08/12 08:41:37;;;;;;;6.13;5.43;;;26.80;99.90;;;;;;5012056;28;20603;-72
2021/08/12 08:44:07;;;;;;;6.22;5.72;;;26.90;99.90;;;;;;5011005;28;20227;-71
2021/08/12 08:46:35;;;;;;;6.68;6.07;;;27.10;99.90;;;;;;5013803;28;20270;-72
2021/08/12 08:49:04;;;;;;;6.53;5.93;;;27.20;99.90;;;;;;5013796;28;20219;-71
2021/08/12 08:51:35;;;;;;;6.20;5.57;;;27.30;99.90;;;;;;5017744;28;20246;-71
2021/08/12 08:54:02;;;;;;;6.38;5.80;;;27.20;99.90;;;;;;5014492;28;20314;-71
2021/08/12 08:56:30;;;;;;;7.85;6.20;;;27.20;99.90;;;;;;5013354;28;20313;-71
2021/08/12 08:58:57;;;;;;;7.10;5.82;;;27.30;99.90;;;;;;5015556;28;20390;-71
2021/08/12 09:01:24;;;;;;;6.15;5.68;;;27.40;99.90;;;;;;5014841;28;20231;-71
2021/08/12 09:03:51;;;;;;;6.80;6.07;;;27.60;99.90;;;;;;5013155;28;20242;-72
2021/08/12 09:06:21;;;;;;;6.32;5.68;;;27.80;99.90;;;;;;5011869;28;20224;-71
2021/08/12 09:08:48;;;;;;;6.32;5.70;;;27.90;99.90;;;;;;5014318;28;20227;-73
2021/08/12 09:11:15;;;;;;;6.20;5.70;;;27.90;99.90;;;;;;5015934;28;20223;-72
2021/08/12 09:13:42;;;;;;;6.30;5.70;;;27.90;99.90;;;;;;5012875;28;20224;-73
2021/08/12 09:16:29;;;;;;;5.85;5.35;;;27.90;99.90;;;;;;5015710;28;20215;-73
2021/08/12 09:19:12;;;;;;;6.30;5.70;;;28.10;99.90;;;;;;5009351;28;20234;-74
2021/08/12 09:21:40;;;;;;;6.32;5.78;;;28.40;99.90;;;;;;5009258;28;20229;-74
2021/08/12 09:24:08;;;;;;;6.32;5.72;;;28.50;99.90;;;;;;5009988;28;20219;-72
2021/08/12 09:26:39;;;;;;;6.13;5.63;;;28.50;99.90;;;;;;5017928;28;20231;-73
2021/08/12 09:29:07;;;;;;;6.55;5.97;;;28.50;99.90;;;;;;5012810;28;20310;-73
2021/08/12 09:31:34;;;;;;;6.15;5.57;;;28.60;99.90;;;;;;5010900;28;20285;-72
2021/08/12 09:34:12;;;;;;;6.63;5.85;;;28.60;99.90;;;;;;5009626;28;21391;-73
2021/08/12 09:36:41;;;;;;;6.20;5.60;;;28.70;99.90;;;;;;5013873;28;20211;-73
2021/08/12 09:39:13;;;;;;;6.18;5.63;;;28.80;99.90;;;;;;5015561;28;20219;-74
2021/08/12 09:41:42;;;;;;;6.90;6.40;;;28.90;99.90;;;;;;5012234;28;21544;-72
2021/08/12 09:44:51;;;;;;;6.05;5.55;;;29.00;99.90;;;;;;5013288;28;20632;-72
2021/08/12 09:47:28;;;;;;;6.95;6.25;;;29.00;99.90;;;;;;4984771;28;20219;-73
2021/08/12 09:49:57;;;;;;;6.18;5.57;;;29.10;99.90;;;;;;5010208;28;20322;-73
2021/08/12 09:52:28;;;;;;;6.50;6.00;;;29.10;99.90;;;;;;5006752;28;20721;-74
2021/08/12 09:55:07;;;;;;;6.45;5.88;;;29.30;99.90;;;;;;5010397;28;20223;-73
2021/08/12 09:57:41;;;;;;;6.25;5.65;;;29.40;99.90;;;;;;5009288;28;20689;-73
2021/08/12 10:00:10;;;;;;;6.82;5.88;;;29.50;99.90;;;;;;5015217;28;20325;-72
2021/08/12 10:02:37;;;;;;;7.05;5.72;;;29.70;99.90;;;;;;5013359;28;20290;-72
2021/08/12 10:05:06;;;;;;;5.65;5.13;;;29.60;99.90;;;;;;5016257;28;20231;-76
2021/08/12 10:07:40;;;;;;;5.47;4.97;;;29.60;99.90;;;;;;5010336;28;20243;-74
2021/08/12 10:10:16;;;;;;;5.95;5.45;;;29.50;99.90;;;;;;5011911;28;20729;-77
2021/08/12 10:12:47;;;;;;;6.32;5.72;;;29.50;99.90;;;;;;5009697;28;20237;-73
2021/08/12 10:15:15;;;;;;;5.32;4.82;;;29.50;99.90;;;;;;5012986;28;20302;-76
2021/08/12 10:17:43;;;;;;;6.50;5.60;;;29.60;99.90;;;;;;5011862;28;20632;-75
2021/08/12 10:20:13;;;;;;;7.45;6.32;;;29.70;99.90;;;;;;5016040;28;20322;-73
2021/08/12 10:22:43;;;;;;;6.43;5.82;;;29.70;99.90;;;;;;5007210;28;20592;-75
2021/08/12 10:25:12;;;;;;;5.90;5.35;;;29.60;99.90;;;;;;5006224;28;20237;-74
2021/08/12 10:27:41;;;;;;;5.68;5.18;;;29.60;99.90;;;;;;5026653;28;20826;-72
2021/08/12 10:30:10;;;;;;;8.45;6.07;;;29.70;99.90;;;;;;5011075;28;20223;-74
2021/08/12 10:32:45;;;;;;;6.00;5.50;;;29.70;99.90;;;;;;5015254;28;20223;-72
2021/08/12 10:35:13;;;;;;;6.00;5.20;;;29.70;99.90;;;;;;5010981;28;20253;-72
2021/08/12 10:37:41;;;;;;;5.43;4.97;;;29.80;99.90;;;;;;5013463;28;20230;-73
2021/08/12 10:40:13;;;;;;;6.00;5.50;;;29.80;99.90;;;;;;5007786;28;20234;-76
2021/08/12 10:42:43;;;;;;;5.65;5.13;;;30.00;99.90;;;;;;5012894;28;20237;-73
2021/08/12 10:45:11;;;;;;;5.93;5.43;;;30.10;99.90;;;;;;5013138;28;20724;-75
2021/08/12 10:47:40;;;;;;;5.43;5.03;;;30.10;99.90;;;;;;5011989;28;20251;-75
2021/08/12 10:50:30;;;;;;;5.68;5.18;;;30.10;99.90;;;;;;5010792;28;20621;-72
2021/08/12 10:53:20;;;;;;;5.40;4.90;;;30.10;99.90;;;;;;5012821;28;20228;-74
2021/08/12 10:56:08;;;;;;;5.60;5.13;;;30.20;99.90;;;;;;5013123;28;20227;-75
2021/08/12 10:58:46;;;;;;;5.20;4.80;;;30.50;99.90;;;;;;5011490;28;20223;-74
2021/08/12 11:01:15;;;;;;;5.55;5.15;;;30.60;99.90;;;;;;5012557;28;20222;-78
2021/08/12 11:03:45;;;;;;;5.25;4.75;;;30.70;99.90;;;;;;5017693;28;20317;-75
2021/08/12 11:06:17;;;;;;;5.45;4.95;;;30.70;99.90;;;;;;5013402;28;20306;-74
2021/08/12 11:09:04;;;;;;;5.75;5.18;;;30.70;99.90;;;;;;5016121;28;20242;-75
2021/08/12 11:11:57;;;;;;;5.65;5.15;;;31.10;99.90;;;;;;5008577;28;20312;-74
2021/08/12 11:14:58;;;;;;;5.70;5.20;;;31.20;99.90;;;;;;5013486;28;20642;-73
2021/08/12 11:17:26;;;;;;;5.53;5.03;;;31.20;99.90;;;;;;5014937;28;20591;-74
2021/08/12 11:19:54;;;;;;;5.65;5.15;;;31.10;99.90;;;;;;5010248;28;20239;-74
2021/08/12 11:22:37;;;;;;;5.80;5.30;;;31.10;99.90;;;;;;5012260;28;20223;-74
2021/08/12 11:25:09;;;;;;;5.20;4.80;;;31.40;99.90;;;;;;5026884;22;20230;-90
2021/08/12 11:27:41;;;;;;;5.43;4.95;;;31.60;99.90;;;;;;5007343;28;20231;-86
2021/08/12 11:30:50;;;;;;;5.68;5.05;;;31.70;99.90;;;;;;5010983;28;20769;-87
2021/08/12 11:33:35;;;;;;;6.93;4.97;;;31.60;99.90;;;;;;5004101;28;20250;-87
2021/08/12 11:36:20;;;;;;;6.70;4.90;;;31.50;99.90;;;;;;5007062;28;20235;-88
2021/08/12 11:38:59;;;;;;;5.38;4.88;;;31.60;99.90;;;;;;5005633;28;20867;-88
2021/08/12 11:41:35;;;;;;;5.88;5.00;;;31.50;99.90;;;;;;4997057;28;20368;-87
2021/08/12 11:44:03;;;;;;;6.78;4.90;;;31.60;99.90;;;;;;5004895;28;20737;-87
2021/08/12 11:46:37;;;;;;;5.15;4.75;;;31.70;99.90;;;;;;5010508;28;20231;-88
2021/08/12 11:49:05;;;;;;;5.63;4.95;;;31.80;99.90;;;;;;5007984;28;20216;-87
2021/08/12 11:51:33;;;;;;;5.15;4.75;;;31.80;99.90;;;;;;5009616;28;20910;-88
2021/08/12 11:54:00;;;;;;;6.20;4.97;;;31.70;99.90;;;;;;5009559;28;20232;-86
2021/08/12 11:56:32;;;;;;;5.65;5.13;;;31.50;99.90;;;;;;5012266;28;20315;-88
2021/08/12 11:59:01;;;;;;;6.28;4.50;;;31.40;99.90;;;;;;5014457;28;20227;-90
2021/08/12 12:01:30;;;;;;;4.47;4.07;;;31.30;99.90;;;;;;5010203;28;20676;-90
2021/08/12 12:04:00;;;;;;;5.03;4.63;;;31.40;99.90;;;;;;5013487;28;20324;-90
2021/08/12 12:06:32;;;;;;;5.63;5.05;;;31.50;99.90;;;;;;5014072;28;20223;-89
2021/08/12 12:08:59;;;;;;;5.03;4.53;;;31.60;99.90;;;;;;5017095;28;20215;-91
2021/08/12 12:11:28;;;;;;;4.55;4.05;;;31.70;99.90;;;;;;5016239;28;20590;-91
2021/08/12 12:14:02;;;;;;;4.68;4.28;;;31.90;99.90;;;;;;5013961;28;20274;-92
2021/08/12 12:16:29;;;;;;;4.88;4.43;;;32.10;99.90;;;;;;5014125;28;20306;-91
2021/08/12 12:18:56;;;;;;;5.25;4.75;;;32.20;99.90;;;;;;5012321;28;20271;-92
2021/08/12 12:21:23;;;;;;;5.53;5.00;;;32.30;99.90;;;;;;5017564;28;25729;-92
2021/08/12 12:23:50;;;;;;;4.50;4.10;;;32.20;99.90;;;;;;5014405;28;20285;-91
2021/08/12 12:26:22;;;;;;;4.97;4.57;;;32.20;99.90;;;;;;5015096;28;20237;-92
2021/08/12 12:28:51;;;;;;;4.65;4.25;;;32.20;99.90;;;;;;5011943;28;20223;-92
2021/08/12 12:31:19;;;;;;;4.95;4.45;;;32.20;99.90;;;;;;5015872;28;20279;-92
2021/08/12 12:33:57;;;;;;;5.75;5.15;;;32.10;99.90;;;;;;5013543;28;20223;-91
2021/08/12 12:36:24;;;;;;;4.50;4.15;;;32.00;99.90;;;;;;5017248;28;20243;-91
2021/08/12 12:38:52;;;;;;;5.93;4.53;;;32.00;99.90;;;;;;5013567;28;20232;-92
2021/08/12 12:41:20;;;;;;;4.57;4.18;;;32.00;99.90;;;;;;5014331;28;20918;-92
2021/08/12 12:43:47;;;;;;;10.20;4.20;;;32.00;99.90;;;;;;5010146;28;20629;-92
2021/08/12 12:46:30;;;;;;;5.35;4.85;;;32.00;99.90;;;;;;5019222;28;20246;-91
2021/08/12 12:48:57;;;;;;;4.70;4.30;;;32.10;99.90;;;;;;5014943;28;20632;-92
2021/08/12 12:51:26;;;;;;;4.88;4.25;;;32.10;99.90;;;;;;5016141;28;20278;-91
2021/08/12 12:53:54;;;;;;;4.15;3.78;;;32.30;99.90;;;;;;5013449;28;20231;-92
2021/08/12 12:56:23;;;;;;;4.38;3.97;;;32.40;99.90;;;;;;5015764;28;20223;-92
2021/08/12 12:58:51;;;;;;;4.57;3.85;;;32.60;99.90;;;;;;5012989;28;20223;-91
2021/08/12 13:01:24;;;;;;;5.03;4.60;;;32.60;99.90;;;;;;5014405;28;20231;-91
2021/08/12 13:03:57;;;;;;;4.95;4.55;;;32.70;99.90;;;;;;5010575;28;20294;-91